General Francisco J Mujica International Airport
MMMM : now visible

Airfield :











YOU CAN JOIN US ON...

 
LOGIN :

Register | Disclaimer

   EN    FR    IT 

 









Legend :    VFR   Marginal VFR   IFR   Intensive IFR   Very Intensive IFR
Visi :
Ceiling :
>= 8 km
>= 3000ft
5 to 8 km
1000 to 3000 ft
1500m to 5 km
500 to 1000 ft
800 to 1500m
200 to 500 ft
< 800m
< 200 ft
Symbols :   Thunderstorms  Fog  Heavy snow  Heavy precipitations  Wind > 20 kt







- Airport Elevation : 6033 ft
- IATA code : MLM


MMMM - General Francisco J Mujica International

CURRENT METAR :
  • 160041Z 20004KT 7SM SCT025 SCT090 BKN230 22/15 A3015 RMK 8/463 CB W SE PCPN 3TH QUAD

EXPIRED METARs :
  • 152349Z 33003KT 8SM SCT025TCU SCT090 BKN230 25/12 A3014 RMK SLP084 57005 952 8/268 CB E SE
  • 152242Z 00000KT 8SM FEW030 27/10 A3013 RMK 8/100 MDT CU 1ST 2ND QUAD

TAF TAF MMMM
Valid from the 16 at 00:00 until the 17 at 06:00 UTC


152345Z 1600/1706 00000KT P6SM SCT030
TEMPO 1600/1604 VC CB
FM160400 00000KT 5SM HZ SKC
FM161600 03006KT P6SM SKC
FM161900 03010KT P6SM SCT030
BECMG 1620/1621 SCT030CB
FM170200 00000KT P6SM SCT030
No reported NOTAMs for that airfield.



MET'MAP, your aeronautical weather chart ! - Copyright ORBIFLY December 2007 - Disclaimer

ORBIFLY MET'MAP TEAM :

Programming & Development : Alexandra Zaïnal
Concept & Development : Baudouin d'Aumeries
Co-Development & Prog : Marc-Olivier Méhu
Technical & hardware support : Manuel Goepfert

Contact : metmap@orbifly.com




SOURCES & CREDITS :

   NOAA       Earth
Advisory